createdAt,value
2018-12-13T00:00:35.187Z,5.00
2018-12-13T00:03:01.220Z,5.00
2018-12-13T00:05:27.239Z,5.00
2018-12-13T00:07:53.275Z,5.00
2018-12-13T00:10:19.319Z,5.10
2018-12-13T00:12:45.351Z,5.10
2018-12-13T00:15:11.476Z,5.20
2018-12-13T00:17:37.475Z,5.20
2018-12-13T00:20:04.008Z,5.20
2018-12-13T00:22:30.019Z,5.30
2018-12-13T00:24:56.060Z,5.30
2018-12-13T00:27:22.079Z,5.30
2018-12-13T00:29:48.091Z,5.30
2018-12-13T00:32:14.118Z,5.40
2018-12-13T00:34:40.140Z,5.40
2018-12-13T00:37:06.267Z,5.40
2018-12-13T00:39:32.291Z,5.40
2018-12-13T00:41:58.306Z,5.40
2018-12-13T00:44:24.311Z,5.50
2018-12-13T00:46:50.339Z,5.50
2018-12-13T00:49:16.369Z,5.50
2018-12-13T00:51:42.379Z,5.50
2018-12-13T00:54:08.501Z,5.50
2018-12-13T00:56:34.535Z,5.50
2018-12-13T00:59:00.539Z,5.50
2018-12-13T01:01:26.563Z,5.60
2018-12-13T01:03:52.618Z,5.60
2018-12-13T01:06:18.620Z,5.60
2018-12-13T01:08:44.658Z,5.60
2018-12-13T01:11:10.878Z,5.60
2018-12-13T01:13:36.947Z,5.60
2018-12-13T01:16:03.121Z,5.60
2018-12-13T01:18:29.138Z,5.60
2018-12-13T01:20:55.162Z,5.60
2018-12-13T01:23:21.171Z,5.60
2018-12-13T01:25:47.191Z,5.60
2018-12-13T01:28:20.275Z,5.60
2018-12-13T01:30:46.287Z,5.60
2018-12-13T01:33:12.300Z,5.60
2018-12-13T01:35:38.328Z,5.60
2018-12-13T01:38:04.372Z,5.60
2018-12-13T01:40:30.394Z,5.60
2018-12-13T01:42:56.502Z,5.60
2018-12-13T01:45:22.523Z,5.50
2018-12-13T01:47:48.535Z,5.60
2018-12-13T01:50:14.575Z,5.60
2018-12-13T01:52:40.707Z,5.60
2018-12-13T01:55:08.335Z,5.60
2018-12-13T01:57:34.342Z,5.60
2018-12-13T02:00:08.173Z,5.60
2018-12-13T02:02:34.204Z,5.60
2018-12-13T02:05:00.219Z,5.50
2018-12-13T02:07:26.227Z,5.50
2018-12-13T02:09:52.239Z,5.50
2018-12-13T02:12:18.284Z,5.40
2018-12-13T02:14:44.284Z,5.40
2018-12-13T02:17:10.302Z,5.40
2018-12-13T02:19:36.345Z,5.30
2018-12-13T02:22:02.475Z,5.30
2018-12-13T02:24:28.498Z,5.20
2018-12-13T02:26:54.619Z,5.20
2018-12-13T02:29:20.627Z,5.20
2018-12-13T02:31:46.692Z,5.10
2018-12-13T02:34:12.692Z,5.10
2018-12-13T02:36:38.699Z,5.00
2018-12-13T02:39:05.128Z,5.00
2018-12-13T02:41:31.151Z,5.00
2018-12-13T02:43:57.168Z,4.70
2018-12-13T02:46:30.240Z,4.90
2018-12-13T02:49:06.914Z,4.90
2018-12-13T02:51:33.352Z,4.90
2018-12-13T02:53:59.365Z,4.80
2018-12-13T02:56:25.500Z,4.80
2018-12-13T02:58:51.723Z,4.70
2018-12-13T03:01:17.765Z,4.70
2018-12-13T03:03:43.787Z,4.70
2018-12-13T03:06:09.807Z,4.60
2018-12-13T03:08:35.835Z,4.60
2018-12-13T03:11:01.855Z,4.60
2018-12-13T03:13:28.192Z,4.60
2018-12-13T03:15:54.204Z,4.60
2018-12-13T03:18:20.216Z,4.50
2018-12-13T03:20:46.255Z,4.50
2018-12-13T03:23:12.275Z,4.50
2018-12-13T03:25:38.296Z,4.40
2018-12-13T03:28:04.428Z,4.40
2018-12-13T03:30:30.447Z,4.40
2018-12-13T03:32:56.613Z,4.40
2018-12-13T03:35:22.620Z,4.30
2018-12-13T03:37:48.651Z,4.30
2018-12-13T03:40:14.674Z,4.30
2018-12-13T03:42:40.954Z,4.30
2018-12-13T03:45:07.310Z,4.30
2018-12-13T03:47:33.320Z,4.10
2018-12-13T03:49:59.349Z,4.30
2018-12-13T03:52:25.363Z,4.20
2018-12-13T03:54:51.374Z,4.20
2018-12-13T03:57:17.391Z,4.20
2018-12-13T03:59:43.394Z,4.20
2018-12-13T04:02:09.415Z,4.20
2018-12-13T04:04:35.435Z,4.20
2018-12-13T04:07:01.453Z,4.20
2018-12-13T04:09:27.494Z,4.20
2018-12-13T04:11:53.599Z,4.20
2018-12-13T04:14:19.723Z,4.20
2018-12-13T04:16:45.856Z,4.20
2018-12-13T04:19:11.923Z,4.20
2018-12-13T04:21:37.977Z,4.20
2018-12-13T04:24:03.988Z,4.20
2018-12-13T04:26:30.010Z,4.20
2018-12-13T04:28:56.031Z,4.20
2018-12-13T04:31:22.045Z,4.20
2018-12-13T04:33:48.085Z,4.20
2018-12-13T04:36:14.095Z,4.10
2018-12-13T04:38:40.121Z,4.10
2018-12-13T04:41:06.143Z,4.10
2018-12-13T04:43:32.161Z,4.10
2018-12-13T04:45:58.257Z,4.10
2018-12-13T04:48:24.289Z,4.10
2018-12-13T04:50:50.310Z,4.10
2018-12-13T04:53:16.326Z,4.10
2018-12-13T04:55:42.346Z,4.10
2018-12-13T04:58:08.363Z,4.00
2018-12-13T05:00:34.498Z,4.00
2018-12-13T05:03:00.522Z,4.00
2018-12-13T05:05:26.536Z,4.00
2018-12-13T05:07:52.709Z,4.00
2018-12-13T05:10:31.120Z,4.00
2018-12-13T05:12:57.154Z,4.00
2018-12-13T05:15:23.174Z,3.90
2018-12-13T05:17:49.203Z,3.90
2018-12-13T05:20:15.218Z,3.90
2018-12-13T05:22:41.241Z,3.90
2018-12-13T05:25:07.359Z,3.80
2018-12-13T05:27:33.358Z,3.80
2018-12-13T05:29:59.383Z,3.90
2018-12-13T05:32:25.413Z,3.80
2018-12-13T05:34:51.559Z,3.80
2018-12-13T05:37:17.622Z,3.80
2018-12-13T05:39:43.633Z,3.80
2018-12-13T05:42:09.634Z,3.80
2018-12-13T05:44:35.660Z,3.80
2018-12-13T05:47:01.670Z,3.70
2018-12-13T05:49:27.679Z,3.80
2018-12-13T05:51:53.707Z,3.70
2018-12-13T05:54:19.717Z,3.70
2018-12-13T05:56:45.741Z,3.70
2018-12-13T05:59:11.863Z,3.70
2018-12-13T06:01:38.170Z,3.70
2018-12-13T06:04:04.247Z,3.60
2018-12-13T06:06:30.268Z,3.70
2018-12-13T06:08:56.275Z,3.60
2018-12-13T06:11:22.278Z,3.60
2018-12-13T06:13:48.289Z,3.60
2018-12-13T06:16:14.307Z,3.60
2018-12-13T06:18:40.342Z,3.60
2018-12-13T06:21:11.737Z,3.50
2018-12-13T06:23:34.408Z,3.50
2018-12-13T06:26:00.480Z,3.50
2018-12-13T06:28:26.486Z,3.50
2018-12-13T06:30:52.591Z,3.40
2018-12-13T06:33:24.671Z,3.50
2018-12-13T06:35:46.655Z,3.50
2018-12-13T06:38:12.900Z,3.50
2018-12-13T06:40:38.947Z,3.40
2018-12-13T06:43:05.183Z,3.40
2018-12-13T06:45:31.203Z,3.40
2018-12-13T06:47:57.203Z,3.40
2018-12-13T06:50:23.225Z,3.40
2018-12-13T06:52:49.348Z,3.40
2018-12-13T06:55:15.372Z,3.40
2018-12-13T06:57:41.391Z,3.20
2018-12-13T07:00:07.721Z,3.30
2018-12-13T07:02:33.962Z,3.30
2018-12-13T07:04:59.979Z,3.30
2018-12-13T07:07:26.087Z,3.30
2018-12-13T07:09:52.095Z,3.20
2018-12-13T07:12:18.116Z,3.30
2018-12-13T07:14:44.129Z,3.30
2018-12-13T07:17:10.144Z,3.20
2018-12-13T07:19:36.291Z,3.20
2018-12-13T07:22:02.454Z,3.20
2018-12-13T07:24:28.468Z,3.20
2018-12-13T07:26:54.490Z,3.20
2018-12-13T07:29:20.503Z,3.20
2018-12-13T07:31:46.639Z,3.10
2018-12-13T07:34:12.638Z,3.10
2018-12-13T07:36:38.871Z,3.10
2018-12-13T07:39:06.217Z,3.10
2018-12-13T07:41:32.267Z,3.10
2018-12-13T07:43:58.364Z,3.00
2018-12-13T07:46:24.395Z,3.10
2018-12-13T07:48:56.261Z,3.10
2018-12-13T07:51:18.435Z,3.00
2018-12-13T07:53:44.444Z,3.00
2018-12-13T07:56:10.583Z,3.00
2018-12-13T07:58:36.587Z,2.90
2018-12-13T08:01:02.816Z,3.00
2018-12-13T08:03:28.859Z,3.00
2018-12-13T08:05:54.875Z,3.00
2018-12-13T08:08:21.240Z,3.00
2018-12-13T08:10:47.494Z,3.00
2018-12-13T08:13:13.552Z,3.00
2018-12-13T08:15:39.590Z,3.10
2018-12-13T08:18:05.727Z,3.10
2018-12-13T08:20:31.755Z,3.10
2018-12-13T08:22:57.780Z,3.10
2018-12-13T08:25:23.793Z,3.10
2018-12-13T08:27:49.867Z,3.10
2018-12-13T08:30:16.030Z,3.10
2018-12-13T08:32:42.133Z,3.20
2018-12-13T08:35:08.161Z,3.20
2018-12-13T08:37:34.303Z,3.10
2018-12-13T08:40:00.316Z,3.20
2018-12-13T08:42:26.611Z,3.20
2018-12-13T08:44:52.658Z,3.20
2018-12-13T08:47:18.701Z,3.20
2018-12-13T08:49:44.715Z,3.30
2018-12-13T08:52:10.739Z,3.30
2018-12-13T08:54:36.787Z,3.30
2018-12-13T08:57:03.110Z,3.30
2018-12-13T08:59:29.119Z,3.30
2018-12-13T09:01:55.151Z,3.40
2018-12-13T09:04:21.235Z,3.40
2018-12-13T09:06:47.383Z,3.40
2018-12-13T09:09:13.515Z,3.50
2018-12-13T09:11:46.738Z,3.50
2018-12-13T09:14:12.751Z,3.60
2018-12-13T09:16:38.783Z,3.60
2018-12-13T09:19:04.811Z,3.60
2018-12-13T09:21:30.824Z,3.70
2018-12-13T09:23:56.858Z,3.70
2018-12-13T09:26:29.800Z,3.80
2018-12-13T09:28:55.816Z,3.80
2018-12-13T09:31:21.831Z,3.80
2018-12-13T09:33:47.884Z,3.90
2018-12-13T09:36:13.897Z,3.90
2018-12-13T09:38:40.106Z,3.90
2018-12-13T09:41:06.276Z,4.00
2018-12-13T09:43:32.889Z,4.00
2018-12-13T09:45:58.943Z,4.10
2018-12-13T09:48:25.071Z,4.10
2018-12-13T09:50:51.081Z,4.20
2018-12-13T09:53:17.093Z,4.20
2018-12-13T09:55:43.115Z,4.30
2018-12-13T09:58:16.151Z,4.30
2018-12-13T10:00:42.155Z,4.40
2018-12-13T10:03:08.163Z,4.40
2018-12-13T10:05:34.194Z,4.40
2018-12-13T10:08:00.202Z,4.50
2018-12-13T10:10:26.447Z,4.50
2018-12-13T10:12:52.479Z,4.50
2018-12-13T10:15:18.488Z,4.60
2018-12-13T10:17:44.528Z,4.70
2018-12-13T10:20:10.594Z,4.70
2018-12-13T10:22:36.723Z,4.70
2018-12-13T10:25:03.883Z,4.70
2018-12-13T10:27:29.909Z,4.80
2018-12-13T10:29:55.930Z,4.80
2018-12-13T10:32:21.961Z,4.90
2018-12-13T10:34:54.976Z,4.90
2018-12-13T10:37:21.000Z,4.90
2018-12-13T10:39:47.077Z,5.00
2018-12-13T10:42:13.205Z,5.00
2018-12-13T10:44:41.242Z,5.00
2018-12-13T10:47:07.481Z,5.10
2018-12-13T10:49:33.502Z,5.10
2018-12-13T10:51:59.529Z,5.10
2018-12-13T10:54:25.676Z,5.20
2018-12-13T10:56:51.687Z,5.20
2018-12-13T10:59:17.703Z,5.30
2018-12-13T11:01:45.739Z,5.30
2018-12-13T11:04:11.755Z,5.40
2018-12-13T11:06:37.787Z,5.40
2018-12-13T11:09:04.741Z,5.40
2018-12-13T11:11:30.873Z,5.40
2018-12-13T11:13:56.999Z,5.50
2018-12-13T11:16:23.019Z,5.50
2018-12-13T11:18:49.053Z,5.60
2018-12-13T11:21:17.466Z,5.60
2018-12-13T11:23:43.225Z,5.60
2018-12-13T11:26:09.475Z,5.60
2018-12-13T11:29:02.045Z,5.70
2018-12-13T11:31:28.175Z,5.70
2018-12-13T11:33:54.178Z,5.70
2018-12-13T11:36:20.207Z,5.70
2018-12-13T11:38:46.227Z,5.80
2018-12-13T11:41:12.267Z,5.80
2018-12-13T11:43:38.287Z,5.80
2018-12-13T11:46:04.311Z,5.80
2018-12-13T11:48:30.325Z,5.80
2018-12-13T11:50:56.357Z,5.90
2018-12-13T11:53:22.475Z,5.90
2018-12-13T11:55:48.707Z,5.90
2018-12-13T11:58:14.838Z,6.00
2018-12-13T12:00:41.082Z,6.00
2018-12-13T12:03:07.198Z,6.10
2018-12-13T12:05:33.337Z,6.10
2018-12-13T12:07:59.354Z,6.10
2018-12-13T12:10:25.383Z,6.10
2018-12-13T12:12:51.403Z,6.10
2018-12-13T12:15:17.627Z,6.20
2018-12-13T12:17:43.646Z,6.20
2018-12-13T12:20:09.663Z,6.20
2018-12-13T12:22:35.687Z,6.20
2018-12-13T12:25:02.450Z,6.20
2018-12-13T12:27:28.544Z,6.20
2018-12-13T12:29:54.575Z,6.20
2018-12-13T12:32:20.599Z,6.20
2018-12-13T12:34:46.715Z,6.30
2018-12-13T12:37:12.762Z,6.20
2018-12-13T12:39:38.782Z,6.20
2018-12-13T12:42:04.807Z,6.20
2018-12-13T12:44:32.842Z,6.20
2018-12-13T12:46:58.981Z,6.20
2018-12-13T12:49:25.381Z,6.20
2018-12-13T12:51:51.645Z,6.20
2018-12-13T12:54:17.667Z,6.20
2018-12-13T12:56:50.611Z,6.10
2018-12-13T12:59:16.631Z,6.20
2018-12-13T13:01:42.671Z,6.20
2018-12-13T13:04:08.697Z,6.20
2018-12-13T13:06:34.832Z,6.20
2018-12-13T13:09:00.947Z,6.20
2018-12-13T13:11:27.078Z,6.20
2018-12-13T13:13:53.095Z,6.20
2018-12-13T13:16:19.142Z,6.20
2018-12-13T13:18:45.167Z,6.20
2018-12-13T13:21:11.471Z,6.30
2018-12-13T13:23:37.543Z,6.20
2018-12-13T13:26:03.675Z,6.20
2018-12-13T13:28:29.706Z,6.20
2018-12-13T13:30:55.833Z,6.20
2018-12-13T13:33:21.863Z,6.20
2018-12-13T13:35:47.875Z,6.10
2018-12-13T13:38:13.895Z,6.20
2018-12-13T13:40:40.016Z,6.10
2018-12-13T13:43:06.045Z,6.10
2018-12-13T13:45:32.070Z,6.10
2018-12-13T13:47:58.109Z,6.10
2018-12-13T13:50:24.142Z,6.10
2018-12-13T13:52:50.184Z,6.10
2018-12-13T13:55:16.310Z,6.10
2018-12-13T13:57:42.345Z,6.10
2018-12-13T14:00:09.457Z,6.10
2018-12-13T14:02:35.625Z,6.10
2018-12-13T14:05:01.759Z,6.10
2018-12-13T14:07:29.763Z,6.10
2018-12-13T14:09:59.446Z,6.10
2018-12-13T14:12:25.472Z,5.80
2018-12-13T14:14:51.536Z,6.00
2018-12-13T14:17:17.662Z,6.00
2018-12-13T14:19:43.671Z,6.00
2018-12-13T14:22:09.708Z,6.00
2018-12-13T14:24:35.727Z,6.00
2018-12-13T14:27:01.867Z,6.00
2018-12-13T14:29:27.896Z,5.90
2018-12-13T14:31:54.011Z,5.90
2018-12-13T14:34:20.151Z,5.90
2018-12-13T14:36:46.168Z,5.80
2018-12-13T14:39:12.188Z,5.80
2018-12-13T14:41:38.215Z,5.80
2018-12-13T14:44:04.229Z,5.80
2018-12-13T14:46:30.251Z,5.80
2018-12-13T14:48:56.272Z,5.70
2018-12-13T14:51:22.387Z,5.70
2018-12-13T14:53:48.419Z,5.70
2018-12-13T14:56:14.439Z,5.70
2018-12-13T14:58:40.539Z,5.60
2018-12-13T15:01:06.682Z,5.60
2018-12-13T15:03:32.755Z,5.60
2018-12-13T15:05:58.821Z,5.50
2018-12-13T15:08:24.935Z,5.50
2018-12-13T15:10:50.952Z,5.40
2018-12-13T15:13:16.979Z,5.40
2018-12-13T15:15:42.999Z,5.40
2018-12-13T15:18:09.026Z,5.30
2018-12-13T15:20:35.037Z,5.30
2018-12-13T15:23:01.055Z,5.30
2018-12-13T15:25:27.077Z,5.30
2018-12-13T15:27:53.084Z,5.20
2018-12-13T15:30:19.101Z,5.20
2018-12-13T15:32:45.111Z,5.10
2018-12-13T15:35:11.345Z,5.10
2018-12-13T15:37:37.370Z,5.00
2018-12-13T15:40:03.892Z,5.00
2018-12-13T15:42:30.012Z,4.90
2018-12-13T15:44:56.085Z,4.90
2018-12-13T15:47:22.108Z,4.80
2018-12-13T15:49:48.215Z,4.80
2018-12-13T15:52:14.227Z,4.70
2018-12-13T15:54:40.238Z,4.70
2018-12-13T15:57:06.250Z,4.60
2018-12-13T15:59:32.272Z,4.60
2018-12-13T16:01:58.311Z,4.50
2018-12-13T16:04:24.343Z,4.50
2018-12-13T16:06:50.588Z,4.40
2018-12-13T16:09:16.606Z,4.40
2018-12-13T16:11:42.832Z,4.40
2018-12-13T16:14:08.852Z,4.30
2018-12-13T16:16:34.866Z,4.30
2018-12-13T16:19:00.888Z,4.30
2018-12-13T16:21:27.004Z,4.30
2018-12-13T16:23:53.011Z,4.20
2018-12-13T16:26:19.041Z,4.20
2018-12-13T16:28:45.046Z,4.10
2018-12-13T16:31:11.074Z,4.10
2018-12-13T16:33:44.155Z,4.00
2018-12-13T16:36:10.179Z,4.00
2018-12-13T16:38:36.303Z,3.90
2018-12-13T16:41:02.531Z,3.90
2018-12-13T16:43:28.568Z,3.90
2018-12-13T16:45:54.599Z,3.80
2018-12-13T16:48:20.615Z,3.80
2018-12-13T16:50:46.631Z,3.90
2018-12-13T16:53:12.660Z,3.90
2018-12-13T16:55:38.699Z,3.80
2018-12-13T16:58:04.822Z,4.00
2018-12-13T17:00:30.847Z,4.00
2018-12-13T17:02:56.863Z,4.10
2018-12-13T17:05:22.878Z,4.10
2018-12-13T17:07:49.003Z,4.20
2018-12-13T17:10:16.849Z,4.30
2018-12-13T17:12:43.059Z,4.30
2018-12-13T17:15:09.087Z,4.40
2018-12-13T17:17:35.199Z,4.40
2018-12-13T17:20:01.441Z,4.50
2018-12-13T17:22:27.451Z,4.60
2018-12-13T17:24:53.455Z,4.60
2018-12-13T17:27:19.581Z,4.60
2018-12-13T17:29:45.605Z,4.70
2018-12-13T17:32:11.638Z,4.70
2018-12-13T17:34:37.649Z,4.70
2018-12-13T17:37:03.679Z,4.90
2018-12-13T17:39:29.682Z,4.80
2018-12-13T17:41:55.700Z,4.80
2018-12-13T17:44:21.711Z,4.80
2018-12-13T17:46:47.728Z,4.70
2018-12-13T17:49:13.742Z,4.70
2018-12-13T17:51:39.760Z,4.70
2018-12-13T17:54:05.875Z,4.70
2018-12-13T17:56:32.111Z,4.70
2018-12-13T17:58:58.138Z,4.70
2018-12-13T18:01:24.163Z,4.70
2018-12-13T18:03:50.542Z,4.70
2018-12-13T18:06:16.559Z,4.70
2018-12-13T18:08:42.571Z,4.70
2018-12-13T18:11:08.608Z,4.70
2018-12-13T18:13:34.642Z,4.70
2018-12-13T18:16:00.831Z,4.70
2018-12-13T18:18:26.883Z,4.70
2018-12-13T18:20:52.996Z,4.70
2018-12-13T18:23:19.009Z,4.60
2018-12-13T18:25:45.070Z,4.60
2018-12-13T18:28:11.091Z,4.50
2018-12-13T18:30:37.119Z,4.50
2018-12-13T18:33:03.146Z,4.40
2018-12-13T18:35:29.158Z,4.40
2018-12-13T18:37:55.180Z,4.40
2018-12-13T18:40:21.206Z,4.30
2018-12-13T18:42:47.217Z,4.30
2018-12-13T18:45:13.689Z,4.30
2018-12-13T18:47:39.695Z,4.20
2018-12-13T18:50:05.941Z,4.20
2018-12-13T18:52:31.968Z,4.20
2018-12-13T18:54:57.981Z,4.20
2018-12-13T18:57:23.987Z,4.10
2018-12-13T18:59:50.019Z,4.10
2018-12-13T19:02:16.032Z,4.10
2018-12-13T19:04:42.226Z,4.00
2018-12-13T19:07:08.714Z,4.00
2018-12-13T19:09:34.716Z,4.00
2018-12-13T19:12:00.721Z,4.00
2018-12-13T19:14:26.857Z,4.00
2018-12-13T19:16:52.983Z,4.00
2018-12-13T19:19:19.031Z,4.20
2018-12-13T19:21:45.048Z,4.10
2018-12-13T19:24:11.195Z,4.10
2018-12-13T19:26:37.210Z,4.10
2018-12-13T19:29:03.228Z,4.10
2018-12-13T19:31:29.273Z,4.20
2018-12-13T19:33:55.271Z,4.20
2018-12-13T19:36:21.291Z,4.20
2018-12-13T19:38:47.627Z,4.20
2018-12-13T19:41:13.643Z,4.20
2018-12-13T19:43:39.659Z,4.20
2018-12-13T19:46:05.685Z,4.20
2018-12-13T19:48:31.690Z,4.20
2018-12-13T19:50:58.019Z,4.10
2018-12-13T19:53:24.160Z,4.10
2018-12-13T19:55:50.196Z,4.10
2018-12-13T19:58:16.235Z,4.10
2018-12-13T20:00:42.268Z,4.00
2018-12-13T20:03:08.389Z,4.20
2018-12-13T20:05:34.402Z,4.00
2018-12-13T20:08:00.427Z,3.90
2018-12-13T20:10:26.543Z,3.90
2018-12-13T20:12:52.580Z,3.90
2018-12-13T20:15:23.961Z,3.90
2018-12-13T20:17:46.692Z,3.90
2018-12-13T20:20:12.758Z,3.90
2018-12-13T20:22:38.783Z,3.90
2018-12-13T20:25:04.896Z,3.90
2018-12-13T20:27:31.015Z,3.90
2018-12-13T20:29:57.031Z,4.00
2018-12-13T20:32:23.583Z,4.00
2018-12-13T20:34:50.136Z,4.00
2018-12-13T20:37:16.175Z,4.00
2018-12-13T20:39:42.321Z,4.00
2018-12-13T20:42:08.431Z,4.10
2018-12-13T20:44:34.467Z,4.10
2018-12-13T20:47:00.478Z,4.10
2018-12-13T20:49:26.482Z,4.10
2018-12-13T20:51:52.603Z,4.10
2018-12-13T20:54:18.622Z,4.10
2018-12-13T20:56:44.630Z,4.10
2018-12-13T20:59:10.643Z,4.00
2018-12-13T21:01:36.675Z,4.00
2018-12-13T21:04:02.903Z,3.90
2018-12-13T21:06:28.922Z,3.90
2018-12-13T21:08:55.033Z,3.80
2018-12-13T21:11:21.171Z,3.80
2018-12-13T21:13:47.543Z,3.80
2018-12-13T21:16:13.687Z,3.70
2018-12-13T21:18:39.712Z,3.70
2018-12-13T21:21:05.859Z,3.60
2018-12-13T21:23:31.872Z,3.60
2018-12-13T21:25:57.987Z,3.60
2018-12-13T21:28:24.006Z,3.60
2018-12-13T21:30:50.022Z,3.50
2018-12-13T21:33:22.947Z,3.40
2018-12-13T21:35:49.332Z,3.40
2018-12-13T21:38:15.353Z,3.40
2018-12-13T21:40:41.379Z,3.30
2018-12-13T21:43:07.399Z,3.30
2018-12-13T21:45:33.416Z,3.30
2018-12-13T21:47:59.431Z,3.30
2018-12-13T21:50:25.443Z,3.20
2018-12-13T21:52:51.464Z,3.20
2018-12-13T21:55:17.611Z,3.20
2018-12-13T21:57:43.636Z,3.10
2018-12-13T22:00:10.075Z,3.10
2018-12-13T22:02:36.345Z,3.10
2018-12-13T22:05:03.363Z,3.10
2018-12-13T22:07:29.369Z,3.20
2018-12-13T22:09:55.492Z,3.20
2018-12-13T22:12:22.292Z,3.20
2018-12-13T22:14:48.552Z,3.20
2018-12-13T22:17:14.559Z,3.30
2018-12-13T22:19:41.115Z,3.40
2018-12-13T22:22:07.127Z,3.40
2018-12-13T22:24:33.139Z,3.50
2018-12-13T22:26:59.168Z,3.50
2018-12-13T22:29:25.279Z,3.60
2018-12-13T22:31:51.839Z,3.60
2018-12-13T22:34:17.892Z,3.60
2018-12-13T22:36:44.131Z,3.70
2018-12-13T22:39:10.524Z,3.70
2018-12-13T22:41:36.534Z,3.70
2018-12-13T22:44:02.767Z,3.80
2018-12-13T22:46:28.784Z,3.80
2018-12-13T22:48:54.790Z,3.90
2018-12-13T22:51:20.810Z,3.90
2018-12-13T22:53:46.927Z,3.90
2018-12-13T22:56:13.051Z,3.90
2018-12-13T22:58:39.072Z,3.90
2018-12-13T23:01:05.188Z,4.00
2018-12-13T23:03:31.211Z,4.00
2018-12-13T23:05:57.250Z,4.10
2018-12-13T23:08:23.263Z,4.00
2018-12-13T23:10:49.395Z,4.00
2018-12-13T23:13:15.627Z,4.10
2018-12-13T23:15:41.662Z,4.10
2018-12-13T23:18:07.771Z,4.10
2018-12-13T23:20:33.882Z,4.10
2018-12-13T23:22:59.895Z,4.10
2018-12-13T23:25:26.006Z,4.10
2018-12-13T23:27:52.158Z,4.00
2018-12-13T23:30:18.395Z,4.00
2018-12-13T23:32:44.526Z,4.00
2018-12-13T23:35:10.656Z,4.00
2018-12-13T23:37:36.670Z,4.00
2018-12-13T23:40:03.112Z,4.00
2018-12-13T23:42:29.119Z,4.00
2018-12-13T23:45:02.690Z,3.70
2018-12-13T23:47:28.707Z,4.00
2018-12-13T23:49:54.707Z,4.00
2018-12-13T23:52:20.728Z,3.90
2018-12-13T23:54:46.750Z,3.90
2018-12-13T23:57:12.774Z,4.00
2018-12-13T23:59:38.770Z,3.90
